sensor_id;sensor_type;location;lat;lon;timestamp;P1;durP1;ratioP1;P2;durP2;ratioP2
22967;SDS011;11650;48.106;-1.696;2023-04-21T00:00:25;11.63;;;5.53;;
22967;SDS011;11650;48.106;-1.696;2023-04-21T00:02:51;14.70;;;6.03;;
22967;SDS011;11650;48.106;-1.696;2023-04-21T00:05:17;13.37;;;5.77;;
22967;SDS011;11650;48.106;-1.696;2023-04-21T00:07:42;12.67;;;6.17;;
22967;SDS011;11650;48.106;-1.696;2023-04-21T00:10:09;15.00;;;6.10;;
22967;SDS011;11650;48.106;-1.696;2023-04-21T00:12:35;13.17;;;5.93;;
22967;SDS011;11650;48.106;-1.696;2023-04-21T00:15:01;11.00;;;5.80;;
22967;SDS011;11650;48.106;-1.696;2023-04-21T00:17:27;15.20;;;6.50;;
22967;SDS011;11650;48.106;-1.696;2023-04-21T00:19:53;15.20;;;6.10;;
22967;SDS011;11650;48.106;-1.696;2023-04-21T00:22:19;16.17;;;6.83;;
22967;SDS011;11650;48.106;-1.696;2023-04-21T00:24:45;14.60;;;6.60;;
22967;SDS011;11650;48.106;-1.696;2023-04-21T00:27:11;15.40;;;6.30;;
22967;SDS011;11650;48.106;-1.696;2023-04-21T00:29:37;14.27;;;6.57;;
22967;SDS011;11650;48.106;-1.696;2023-04-21T00:32:04;13.87;;;6.77;;
22967;SDS011;11650;48.106;-1.696;2023-04-21T00:34:33;11.97;;;6.67;;
22967;SDS011;11650;48.106;-1.696;2023-04-21T00:36:59;17.47;;;6.80;;
22967;SDS011;11650;48.106;-1.696;2023-04-21T00:39:25;17.53;;;7.13;;
22967;SDS011;11650;48.106;-1.696;2023-04-21T00:41:51;15.90;;;7.50;;
22967;SDS011;11650;48.106;-1.696;2023-04-21T00:44:16;14.27;;;7.33;;
22967;SDS011;11650;48.106;-1.696;2023-04-21T00:46:42;15.40;;;7.60;;
22967;SDS011;11650;48.106;-1.696;2023-04-21T00:49:08;16.93;;;8.17;;
22967;SDS011;11650;48.106;-1.696;2023-04-21T00:51:34;14.73;;;7.97;;
22967;SDS011;11650;48.106;-1.696;2023-04-21T00:54:01;15.50;;;7.77;;
22967;SDS011;11650;48.106;-1.696;2023-04-21T00:56:30;17.07;;;8.53;;
22967;SDS011;11650;48.106;-1.696;2023-04-21T00:58:58;19.67;;;8.87;;
22967;SDS011;11650;48.106;-1.696;2023-04-21T01:01:24;15.73;;;8.50;;
22967;SDS011;11650;48.106;-1.696;2023-04-21T01:03:51;18.27;;;8.10;;
22967;SDS011;11650;48.106;-1.696;2023-04-21T01:06:17;17.80;;;9.00;;
22967;SDS011;11650;48.106;-1.696;2023-04-21T01:08:46;18.10;;;8.67;;
22967;SDS011;11650;48.106;-1.696;2023-04-21T01:11:12;16.07;;;8.40;;
22967;SDS011;11650;48.106;-1.696;2023-04-21T01:13:38;20.17;;;9.43;;
22967;SDS011;11650;48.106;-1.696;2023-04-21T01:16:04;22.43;;;9.60;;
22967;SDS011;11650;48.106;-1.696;2023-04-21T01:18:32;20.57;;;9.27;;
22967;SDS011;11650;48.106;-1.696;2023-04-21T01:20:58;21.83;;;10.17;;
22967;SDS011;11650;48.106;-1.696;2023-04-21T01:23:23;18.60;;;10.10;;
22967;SDS011;11650;48.106;-1.696;2023-04-21T01:25:49;18.60;;;10.13;;
22967;SDS011;11650;48.106;-1.696;2023-04-21T01:28:22;19.87;;;9.37;;
22967;SDS011;11650;48.106;-1.696;2023-04-21T01:30:48;16.13;;;9.73;;
22967;SDS011;11650;48.106;-1.696;2023-04-21T01:33:14;18.53;;;10.57;;
22967;SDS011;11650;48.106;-1.696;2023-04-21T01:35:40;24.00;;;9.90;;
22967;SDS011;11650;48.106;-1.696;2023-04-21T01:38:06;20.57;;;10.27;;
22967;SDS011;11650;48.106;-1.696;2023-04-21T01:40:31;24.70;;;11.40;;
22967;SDS011;11650;48.106;-1.696;2023-04-21T01:42:57;21.97;;;11.30;;
22967;SDS011;11650;48.106;-1.696;2023-04-21T01:45:23;22.37;;;11.33;;
22967;SDS011;11650;48.106;-1.696;2023-04-21T01:47:49;22.23;;;10.83;;
22967;SDS011;11650;48.106;-1.696;2023-04-21T01:50:14;19.00;;;11.33;;
22967;SDS011;11650;48.106;-1.696;2023-04-21T01:52:40;19.60;;;10.60;;
22967;SDS011;11650;48.106;-1.696;2023-04-21T01:55:06;19.93;;;11.20;;
22967;SDS011;11650;48.106;-1.696;2023-04-21T01:57:32;21.60;;;11.47;;
22967;SDS011;11650;48.106;-1.696;2023-04-21T01:59:58;20.50;;;11.30;;
22967;SDS011;11650;48.106;-1.696;2023-04-21T02:02:23;16.27;;;11.17;;
22967;SDS011;11650;48.106;-1.696;2023-04-21T02:04:49;20.73;;;11.80;;
22967;SDS011;11650;48.106;-1.696;2023-04-21T02:07:15;17.90;;;11.20;;
22967;SDS011;11650;48.106;-1.696;2023-04-21T02:09:41;21.47;;;11.87;;
22967;SDS011;11650;48.106;-1.696;2023-04-21T02:12:06;20.70;;;11.00;;
22967;SDS011;11650;48.106;-1.696;2023-04-21T02:14:32;20.90;;;12.00;;
22967;SDS011;11650;48.106;-1.696;2023-04-21T02:16:58;17.27;;;11.47;;
22967;SDS011;11650;48.106;-1.696;2023-04-21T02:19:23;23.83;;;11.70;;
22967;SDS011;11650;48.106;-1.696;2023-04-21T02:21:49;22.63;;;11.50;;
22967;SDS011;11650;48.106;-1.696;2023-04-21T02:24:15;21.80;;;12.67;;
22967;SDS011;11650;48.106;-1.696;2023-04-21T02:26:40;21.33;;;11.90;;
22967;SDS011;11650;48.106;-1.696;2023-04-21T02:29:06;24.63;;;11.83;;
22967;SDS011;11650;48.106;-1.696;2023-04-21T02:31:32;20.50;;;11.00;;
22967;SDS011;11650;48.106;-1.696;2023-04-21T02:33:57;27.73;;;12.07;;
22967;SDS011;11650;48.106;-1.696;2023-04-21T02:36:23;23.67;;;12.13;;
22967;SDS011;11650;48.106;-1.696;2023-04-21T02:38:49;22.03;;;12.13;;
22967;SDS011;11650;48.106;-1.696;2023-04-21T02:41:15;21.43;;;12.50;;
22967;SDS011;11650;48.106;-1.696;2023-04-21T02:43:40;19.53;;;12.27;;
22967;SDS011;11650;48.106;-1.696;2023-04-21T02:46:06;24.90;;;12.20;;
22967;SDS011;11650;48.106;-1.696;2023-04-21T02:48:33;24.23;;;12.23;;
22967;SDS011;11650;48.106;-1.696;2023-04-21T02:50:59;24.33;;;12.63;;
22967;SDS011;11650;48.106;-1.696;2023-04-21T02:53:25;22.90;;;13.43;;
22967;SDS011;11650;48.106;-1.696;2023-04-21T02:55:50;24.60;;;14.00;;
22967;SDS011;11650;48.106;-1.696;2023-04-21T02:58:16;25.00;;;13.10;;
22967;SDS011;11650;48.106;-1.696;2023-04-21T03:00:42;25.93;;;14.13;;
22967;SDS011;11650;48.106;-1.696;2023-04-21T03:03:08;24.93;;;14.13;;
22967;SDS011;11650;48.106;-1.696;2023-04-21T03:05:33;27.97;;;14.47;;
22967;SDS011;11650;48.106;-1.696;2023-04-21T03:07:59;23.67;;;14.17;;
22967;SDS011;11650;48.106;-1.696;2023-04-21T03:10:25;25.20;;;14.60;;
22967;SDS011;11650;48.106;-1.696;2023-04-21T03:12:51;26.87;;;14.30;;
22967;SDS011;11650;48.106;-1.696;2023-04-21T03:15:17;27.60;;;14.77;;
22967;SDS011;11650;48.106;-1.696;2023-04-21T03:17:43;28.37;;;15.97;;
22967;SDS011;11650;48.106;-1.696;2023-04-21T03:20:09;28.40;;;14.93;;
22967;SDS011;11650;48.106;-1.696;2023-04-21T03:22:37;25.47;;;14.83;;
22967;SDS011;11650;48.106;-1.696;2023-04-21T03:25:03;25.23;;;15.50;;
22967;SDS011;11650;48.106;-1.696;2023-04-21T03:27:31;21.57;;;14.90;;
22967;SDS011;11650;48.106;-1.696;2023-04-21T03:29:57;33.50;;;15.93;;
22967;SDS011;11650;48.106;-1.696;2023-04-21T03:32:23;23.93;;;15.00;;
22967;SDS011;11650;48.106;-1.696;2023-04-21T03:34:49;26.73;;;15.10;;
22967;SDS011;11650;48.106;-1.696;2023-04-21T03:37:14;29.63;;;15.57;;
22967;SDS011;11650;48.106;-1.696;2023-04-21T03:39:40;26.70;;;15.47;;
22967;SDS011;11650;48.106;-1.696;2023-04-21T03:42:06;27.87;;;15.57;;
22967;SDS011;11650;48.106;-1.696;2023-04-21T03:44:31;29.63;;;16.70;;
22967;SDS011;11650;48.106;-1.696;2023-04-21T03:46:57;26.97;;;16.43;;
22967;SDS011;11650;48.106;-1.696;2023-04-21T03:49:23;30.77;;;16.70;;
22967;SDS011;11650;48.106;-1.696;2023-04-21T03:51:48;29.57;;;16.17;;
22967;SDS011;11650;48.106;-1.696;2023-04-21T03:54:14;30.40;;;17.10;;
22967;SDS011;11650;48.106;-1.696;2023-04-21T03:56:40;27.13;;;16.63;;
22967;SDS011;11650;48.106;-1.696;2023-04-21T03:59:05;30.47;;;17.10;;
22967;SDS011;11650;48.106;-1.696;2023-04-21T04:01:32;28.13;;;16.77;;
22967;SDS011;11650;48.106;-1.696;2023-04-21T04:03:58;30.10;;;17.37;;
22967;SDS011;11650;48.106;-1.696;2023-04-21T04:06:24;34.37;;;17.93;;
22967;SDS011;11650;48.106;-1.696;2023-04-21T04:08:50;33.97;;;17.47;;
22967;SDS011;11650;48.106;-1.696;2023-04-21T04:11:16;29.43;;;17.83;;
22967;SDS011;11650;48.106;-1.696;2023-04-21T04:13:41;28.67;;;17.77;;
22967;SDS011;11650;48.106;-1.696;2023-04-21T04:16:07;30.80;;;18.03;;
22967;SDS011;11650;48.106;-1.696;2023-04-21T04:18:32;29.33;;;18.07;;
22967;SDS011;11650;48.106;-1.696;2023-04-21T04:21:05;32.40;;;17.60;;
22967;SDS011;11650;48.106;-1.696;2023-04-21T04:23:31;32.97;;;18.20;;
22967;SDS011;11650;48.106;-1.696;2023-04-21T04:25:57;30.53;;;17.97;;
22967;SDS011;11650;48.106;-1.696;2023-04-21T04:28:23;28.73;;;17.47;;
22967;SDS011;11650;48.106;-1.696;2023-04-21T04:30:49;32.67;;;17.97;;
22967;SDS011;11650;48.106;-1.696;2023-04-21T04:33:14;32.73;;;18.30;;
22967;SDS011;11650;48.106;-1.696;2023-04-21T04:35:40;31.30;;;18.53;;
22967;SDS011;11650;48.106;-1.696;2023-04-21T04:38:06;30.70;;;17.97;;
22967;SDS011;11650;48.106;-1.696;2023-04-21T04:40:31;34.40;;;19.03;;
22967;SDS011;11650;48.106;-1.696;2023-04-21T04:42:57;35.13;;;19.20;;
22967;SDS011;11650;48.106;-1.696;2023-04-21T04:45:25;28.60;;;18.90;;
22967;SDS011;11650;48.106;-1.696;2023-04-21T04:47:52;32.30;;;18.70;;
22967;SDS011;11650;48.106;-1.696;2023-04-21T04:50:18;31.97;;;18.57;;
22967;SDS011;11650;48.106;-1.696;2023-04-21T04:52:43;35.30;;;20.03;;
22967;SDS011;11650;48.106;-1.696;2023-04-21T04:55:11;33.33;;;20.13;;
22967;SDS011;11650;48.106;-1.696;2023-04-21T04:57:37;34.40;;;18.73;;
22967;SDS011;11650;48.106;-1.696;2023-04-21T05:00:03;32.03;;;19.00;;
22967;SDS011;11650;48.106;-1.696;2023-04-21T05:02:32;31.70;;;20.03;;
22967;SDS011;11650;48.106;-1.696;2023-04-21T05:04:58;30.57;;;19.30;;
22967;SDS011;11650;48.106;-1.696;2023-04-21T05:07:23;37.77;;;20.03;;
22967;SDS011;11650;48.106;-1.696;2023-04-21T05:09:49;35.53;;;20.40;;
22967;SDS011;11650;48.106;-1.696;2023-04-21T05:12:15;35.33;;;21.00;;
22967;SDS011;11650;48.106;-1.696;2023-04-21T05:14:41;34.60;;;20.50;;
22967;SDS011;11650;48.106;-1.696;2023-04-21T05:17:06;34.07;;;19.90;;
22967;SDS011;11650;48.106;-1.696;2023-04-21T05:19:34;35.70;;;21.70;;
22967;SDS011;11650;48.106;-1.696;2023-04-21T05:22:01;37.83;;;20.57;;
22967;SDS011;11650;48.106;-1.696;2023-04-21T05:24:27;32.90;;;20.13;;
22967;SDS011;11650;48.106;-1.696;2023-04-21T05:26:53;34.13;;;19.90;;
22967;SDS011;11650;48.106;-1.696;2023-04-21T05:29:18;33.50;;;20.27;;
22967;SDS011;11650;48.106;-1.696;2023-04-21T05:31:45;35.33;;;21.00;;
22967;SDS011;11650;48.106;-1.696;2023-04-21T05:34:10;36.80;;;21.80;;
22967;SDS011;11650;48.106;-1.696;2023-04-21T05:36:36;41.03;;;21.70;;
22967;SDS011;11650;48.106;-1.696;2023-04-21T05:39:05;34.60;;;21.90;;
22967;SDS011;11650;48.106;-1.696;2023-04-21T05:41:31;38.47;;;21.70;;
22967;SDS011;11650;48.106;-1.696;2023-04-21T05:43:56;34.63;;;20.57;;
22967;SDS011;11650;48.106;-1.696;2023-04-21T05:46:22;37.23;;;21.87;;
22967;SDS011;11650;48.106;-1.696;2023-04-21T05:48:48;35.33;;;21.80;;
22967;SDS011;11650;48.106;-1.696;2023-04-21T05:51:14;39.17;;;22.57;;
22967;SDS011;11650;48.106;-1.696;2023-04-21T05:53:40;35.50;;;21.47;;
22967;SDS011;11650;48.106;-1.696;2023-04-21T05:56:07;35.37;;;20.67;;
22967;SDS011;11650;48.106;-1.696;2023-04-21T05:58:34;34.50;;;21.73;;
22967;SDS011;11650;48.106;-1.696;2023-04-21T06:01:00;38.63;;;22.57;;
22967;SDS011;11650;48.106;-1.696;2023-04-21T06:03:26;35.80;;;22.53;;
22967;SDS011;11650;48.106;-1.696;2023-04-21T06:05:54;38.43;;;21.67;;
22967;SDS011;11650;48.106;-1.696;2023-04-21T06:08:21;36.57;;;21.90;;
22967;SDS011;11650;48.106;-1.696;2023-04-21T06:10:47;36.27;;;22.07;;
22967;SDS011;11650;48.106;-1.696;2023-04-21T06:13:13;36.60;;;21.67;;
22967;SDS011;11650;48.106;-1.696;2023-04-21T06:15:38;33.13;;;21.87;;
22967;SDS011;11650;48.106;-1.696;2023-04-21T06:18:04;38.63;;;21.90;;
22967;SDS011;11650;48.106;-1.696;2023-04-21T06:20:30;37.37;;;22.53;;
22967;SDS011;11650;48.106;-1.696;2023-04-21T06:22:55;36.47;;;21.70;;
22967;SDS011;11650;48.106;-1.696;2023-04-21T06:25:21;37.33;;;22.67;;
22967;SDS011;11650;48.106;-1.696;2023-04-21T06:27:47;40.90;;;23.70;;
22967;SDS011;11650;48.106;-1.696;2023-04-21T06:30:13;36.60;;;22.73;;
22967;SDS011;11650;48.106;-1.696;2023-04-21T06:32:38;36.03;;;22.60;;
22967;SDS011;11650;48.106;-1.696;2023-04-21T06:35:04;41.10;;;24.67;;
22967;SDS011;11650;48.106;-1.696;2023-04-21T06:37:30;37.67;;;22.93;;
22967;SDS011;11650;48.106;-1.696;2023-04-21T06:39:56;39.07;;;23.40;;
22967;SDS011;11650;48.106;-1.696;2023-04-21T06:42:21;36.97;;;23.37;;
22967;SDS011;11650;48.106;-1.696;2023-04-21T06:44:47;42.23;;;24.37;;
22967;SDS011;11650;48.106;-1.696;2023-04-21T06:47:13;37.90;;;24.27;;
22967;SDS011;11650;48.106;-1.696;2023-04-21T06:49:40;36.67;;;22.80;;
22967;SDS011;11650;48.106;-1.696;2023-04-21T06:52:06;37.07;;;23.60;;
22967;SDS011;11650;48.106;-1.696;2023-04-21T06:54:32;36.30;;;23.80;;
22967;SDS011;11650;48.106;-1.696;2023-04-21T06:56:57;38.17;;;24.10;;
22967;SDS011;11650;48.106;-1.696;2023-04-21T06:59:23;38.03;;;25.07;;
22967;SDS011;11650;48.106;-1.696;2023-04-21T07:01:49;39.83;;;23.60;;
22967;SDS011;11650;48.106;-1.696;2023-04-21T07:04:16;41.67;;;25.03;;
22967;SDS011;11650;48.106;-1.696;2023-04-21T07:06:42;40.63;;;25.03;;
22967;SDS011;11650;48.106;-1.696;2023-04-21T07:09:08;43.77;;;24.57;;
22967;SDS011;11650;48.106;-1.696;2023-04-21T07:11:34;38.00;;;23.77;;
22967;SDS011;11650;48.106;-1.696;2023-04-21T07:13:59;40.93;;;24.77;;
22967;SDS011;11650;48.106;-1.696;2023-04-21T07:16:26;39.63;;;24.10;;
22967;SDS011;11650;48.106;-1.696;2023-04-21T07:18:52;41.20;;;23.67;;
22967;SDS011;11650;48.106;-1.696;2023-04-21T07:21:18;38.53;;;24.27;;
22967;SDS011;11650;48.106;-1.696;2023-04-21T07:23:44;37.77;;;24.70;;
22967;SDS011;11650;48.106;-1.696;2023-04-21T07:26:09;38.97;;;24.53;;
22967;SDS011;11650;48.106;-1.696;2023-04-21T07:28:36;38.00;;;24.60;;
22967;SDS011;11650;48.106;-1.696;2023-04-21T07:31:02;35.83;;;23.90;;
22967;SDS011;11650;48.106;-1.696;2023-04-21T07:33:28;35.20;;;23.17;;
22967;SDS011;11650;48.106;-1.696;2023-04-21T07:35:54;35.17;;;22.50;;
22967;SDS011;11650;48.106;-1.696;2023-04-21T07:38:20;34.10;;;23.03;;
22967;SDS011;11650;48.106;-1.696;2023-04-21T07:40:45;32.40;;;22.43;;
22967;SDS011;11650;48.106;-1.696;2023-04-21T07:43:11;34.00;;;21.53;;
22967;SDS011;11650;48.106;-1.696;2023-04-21T07:45:37;33.30;;;21.87;;
22967;SDS011;11650;48.106;-1.696;2023-04-21T07:48:03;34.50;;;21.57;;
22967;SDS011;11650;48.106;-1.696;2023-04-21T07:50:30;30.70;;;22.40;;
22967;SDS011;11650;48.106;-1.696;2023-04-21T07:52:56;31.50;;;20.97;;
22967;SDS011;11650;48.106;-1.696;2023-04-21T07:55:21;32.40;;;20.90;;
22967;SDS011;11650;48.106;-1.696;2023-04-21T07:57:47;33.57;;;21.20;;
22967;SDS011;11650;48.106;-1.696;2023-04-21T08:00:13;34.07;;;21.03;;
22967;SDS011;11650;48.106;-1.696;2023-04-21T08:02:40;33.90;;;21.80;;
22967;SDS011;11650;48.106;-1.696;2023-04-21T08:05:05;31.30;;;20.93;;
22967;SDS011;11650;48.106;-1.696;2023-04-21T08:07:31;29.53;;;20.97;;
22967;SDS011;11650;48.106;-1.696;2023-04-21T08:09:57;31.63;;;21.53;;
22967;SDS011;11650;48.106;-1.696;2023-04-21T08:12:24;32.97;;;21.27;;
22967;SDS011;11650;48.106;-1.696;2023-04-21T08:14:50;31.67;;;21.17;;
22967;SDS011;11650;48.106;-1.696;2023-04-21T08:17:16;30.80;;;21.30;;
22967;SDS011;11650;48.106;-1.696;2023-04-21T08:19:41;31.07;;;21.40;;
22967;SDS011;11650;48.106;-1.696;2023-04-21T08:22:07;35.37;;;22.23;;
22967;SDS011;11650;48.106;-1.696;2023-04-21T08:24:33;35.87;;;22.10;;
22967;SDS011;11650;48.106;-1.696;2023-04-21T08:26:59;38.83;;;22.63;;
22967;SDS011;11650;48.106;-1.696;2023-04-21T08:29:26;36.23;;;22.93;;
22967;SDS011;11650;48.106;-1.696;2023-04-21T08:31:52;33.83;;;21.33;;
22967;SDS011;11650;48.106;-1.696;2023-04-21T08:34:18;33.30;;;22.03;;
22967;SDS011;11650;48.106;-1.696;2023-04-21T08:36:44;35.50;;;21.83;;
22967;SDS011;11650;48.106;-1.696;2023-04-21T08:39:11;31.37;;;22.07;;
22967;SDS011;11650;48.106;-1.696;2023-04-21T08:41:37;32.90;;;20.73;;
22967;SDS011;11650;48.106;-1.696;2023-04-21T08:44:07;33.73;;;21.53;;
22967;SDS011;11650;48.106;-1.696;2023-04-21T08:46:35;32.40;;;20.60;;
22967;SDS011;11650;48.106;-1.696;2023-04-21T08:49:01;28.17;;;20.17;;
22967;SDS011;11650;48.106;-1.696;2023-04-21T08:51:27;29.43;;;19.13;;
22967;SDS011;11650;48.106;-1.696;2023-04-21T08:53:54;26.17;;;18.30;;
22967;SDS011;11650;48.106;-1.696;2023-04-21T08:56:20;31.43;;;18.90;;
22967;SDS011;11650;48.106;-1.696;2023-04-21T08:58:47;28.53;;;19.27;;
22967;SDS011;11650;48.106;-1.696;2023-04-21T09:01:13;30.90;;;18.20;;
22967;SDS011;11650;48.106;-1.696;2023-04-21T09:03:39;25.77;;;16.93;;
22967;SDS011;11650;48.106;-1.696;2023-04-21T09:06:05;26.53;;;17.83;;
22967;SDS011;11650;48.106;-1.696;2023-04-21T09:08:36;27.10;;;17.90;;
22967;SDS011;11650;48.106;-1.696;2023-04-21T09:11:06;25.00;;;17.30;;
22967;SDS011;11650;48.106;-1.696;2023-04-21T09:13:33;24.17;;;17.63;;
22967;SDS011;11650;48.106;-1.696;2023-04-21T09:16:01;24.63;;;17.10;;
22967;SDS011;11650;48.106;-1.696;2023-04-21T09:18:29;23.00;;;16.70;;
22967;SDS011;11650;48.106;-1.696;2023-04-21T09:26:05;25.13;;;16.53;;
22967;SDS011;11650;48.106;-1.696;2023-04-21T09:28:31;25.07;;;17.40;;
22967;SDS011;11650;48.106;-1.696;2023-04-21T09:30:57;24.00;;;17.33;;
22967;SDS011;11650;48.106;-1.696;2023-04-21T09:33:23;23.87;;;15.97;;
22967;SDS011;11650;48.106;-1.696;2023-04-21T09:35:48;25.13;;;17.47;;
22967;SDS011;11650;48.106;-1.696;2023-04-21T09:38:16;28.10;;;18.43;;
22967;SDS011;11650;48.106;-1.696;2023-04-21T09:40:41;26.10;;;17.03;;
22967;SDS011;11650;48.106;-1.696;2023-04-21T09:43:07;21.07;;;15.10;;
22967;SDS011;11650;48.106;-1.696;2023-04-21T09:45:33;19.00;;;13.90;;
22967;SDS011;11650;48.106;-1.696;2023-04-21T09:47:59;20.97;;;14.40;;
22967;SDS011;11650;48.106;-1.696;2023-04-21T09:50:26;21.83;;;14.97;;
22967;SDS011;11650;48.106;-1.696;2023-04-21T09:52:53;18.93;;;13.87;;
22967;SDS011;11650;48.106;-1.696;2023-04-21T09:55:27;20.10;;;13.87;;
22967;SDS011;11650;48.106;-1.696;2023-04-21T09:57:57;19.07;;;14.30;;
22967;SDS011;11650;48.106;-1.696;2023-04-21T10:00:27;21.63;;;15.00;;
22967;SDS011;11650;48.106;-1.696;2023-04-21T10:02:53;19.67;;;14.47;;
22967;SDS011;11650;48.106;-1.696;2023-04-21T10:05:21;19.77;;;14.27;;
22967;SDS011;11650;48.106;-1.696;2023-04-21T10:07:47;18.43;;;13.30;;
22967;SDS011;11650;48.106;-1.696;2023-04-21T10:10:22;17.93;;;13.37;;
22967;SDS011;11650;48.106;-1.696;2023-04-21T10:12:51;17.60;;;12.93;;
22967;SDS011;11650;48.106;-1.696;2023-04-21T10:18:14;17.13;;;12.73;;
22967;SDS011;11650;48.106;-1.696;2023-04-21T10:20:56;17.67;;;14.17;;
22967;SDS011;11650;48.106;-1.696;2023-04-21T10:25:52;16.67;;;13.20;;
22967;SDS011;11650;48.106;-1.696;2023-04-21T10:28:37;19.53;;;13.60;;
22967;SDS011;11650;48.106;-1.696;2023-04-21T10:36:34;16.50;;;13.00;;
22967;SDS011;11650;48.106;-1.696;2023-04-21T10:39:07;18.10;;;12.97;;
22967;SDS011;11650;48.106;-1.696;2023-04-21T10:41:36;18.17;;;13.40;;
22967;SDS011;11650;48.106;-1.696;2023-04-21T10:44:14;20.13;;;13.50;;
22967;SDS011;11650;48.106;-1.696;2023-04-21T10:46:47;19.17;;;13.60;;
22967;SDS011;11650;48.106;-1.696;2023-04-21T10:49:24;19.83;;;14.30;;
22967;SDS011;11650;48.106;-1.696;2023-04-21T10:54:22;19.90;;;14.20;;
22967;SDS011;11650;48.106;-1.696;2023-04-21T10:56:52;20.83;;;14.30;;
22967;SDS011;11650;48.106;-1.696;2023-04-21T10:59:23;18.67;;;14.10;;
22967;SDS011;11650;48.106;-1.696;2023-04-21T11:01:50;19.20;;;13.53;;
22967;SDS011;11650;48.106;-1.696;2023-04-21T11:04:17;19.90;;;14.33;;
22967;SDS011;11650;48.106;-1.696;2023-04-21T11:09:32;19.73;;;14.17;;
22967;SDS011;11650;48.106;-1.696;2023-04-21T11:11:59;19.90;;;13.60;;
22967;SDS011;11650;48.106;-1.696;2023-04-21T11:14:27;19.33;;;14.03;;
22967;SDS011;11650;48.106;-1.696;2023-04-21T11:16:53;20.10;;;14.80;;
22967;SDS011;11650;48.106;-1.696;2023-04-21T11:19:19;17.00;;;13.10;;
22967;SDS011;11650;48.106;-1.696;2023-04-21T11:21:48;17.17;;;13.10;;
22967;SDS011;11650;48.106;-1.696;2023-04-21T11:24:14;16.27;;;13.27;;
22967;SDS011;11650;48.106;-1.696;2023-04-21T11:26:40;17.87;;;13.57;;
22967;SDS011;11650;48.106;-1.696;2023-04-21T11:29:09;19.43;;;14.90;;
22967;SDS011;11650;48.106;-1.696;2023-04-21T11:31:36;17.73;;;14.37;;
22967;SDS011;11650;48.106;-1.696;2023-04-21T11:34:04;17.90;;;14.47;;
22967;SDS011;11650;48.106;-1.696;2023-04-21T11:36:40;18.97;;;14.30;;
22967;SDS011;11650;48.106;-1.696;2023-04-21T11:39:10;17.87;;;14.30;;
22967;SDS011;11650;48.106;-1.696;2023-04-21T11:41:38;20.13;;;14.67;;
22967;SDS011;11650;48.106;-1.696;2023-04-21T11:44:05;18.23;;;14.67;;
22967;SDS011;11650;48.106;-1.696;2023-04-21T11:46:32;21.47;;;15.00;;
22967;SDS011;11650;48.106;-1.696;2023-04-21T11:49:01;19.83;;;14.50;;
22967;SDS011;11650;48.106;-1.696;2023-04-21T11:51:35;19.10;;;14.33;;
22967;SDS011;11650;48.106;-1.696;2023-04-21T11:54:05;18.40;;;13.87;;
22967;SDS011;11650;48.106;-1.696;2023-04-21T11:56:35;16.63;;;13.33;;
22967;SDS011;11650;48.106;-1.696;2023-04-21T11:59:09;17.67;;;14.00;;
22967;SDS011;11650;48.106;-1.696;2023-04-21T12:01:45;19.07;;;13.80;;
22967;SDS011;11650;48.106;-1.696;2023-04-21T12:04:14;17.43;;;14.37;;
22967;SDS011;11650;48.106;-1.696;2023-04-21T12:06:41;16.80;;;14.03;;
22967;SDS011;11650;48.106;-1.696;2023-04-21T12:09:07;17.63;;;13.80;;
22967;SDS011;11650;48.106;-1.696;2023-04-21T12:11:40;18.40;;;14.37;;
22967;SDS011;11650;48.106;-1.696;2023-04-21T12:14:07;18.27;;;14.23;;
22967;SDS011;11650;48.106;-1.696;2023-04-21T12:16:35;17.10;;;13.57;;
22967;SDS011;11650;48.106;-1.696;2023-04-21T12:19:01;15.83;;;13.33;;
22967;SDS011;11650;48.106;-1.696;2023-04-21T12:21:27;16.50;;;13.73;;
22967;SDS011;11650;48.106;-1.696;2023-04-21T12:23:54;17.43;;;12.53;;
22967;SDS011;11650;48.106;-1.696;2023-04-21T12:26:21;18.30;;;14.23;;
22967;SDS011;11650;48.106;-1.696;2023-04-21T12:28:48;17.80;;;13.87;;
22967;SDS011;11650;48.106;-1.696;2023-04-21T12:31:14;14.27;;;12.23;;
22967;SDS011;11650;48.106;-1.696;2023-04-21T12:33:40;16.07;;;13.20;;
22967;SDS011;11650;48.106;-1.696;2023-04-21T12:36:06;16.73;;;12.87;;
22967;SDS011;11650;48.106;-1.696;2023-04-21T12:38:32;16.30;;;12.73;;
22967;SDS011;11650;48.106;-1.696;2023-04-21T12:40:58;16.47;;;13.33;;
22967;SDS011;11650;48.106;-1.696;2023-04-21T12:43:24;18.27;;;13.43;;
22967;SDS011;11650;48.106;-1.696;2023-04-21T12:45:50;18.20;;;13.50;;
22967;SDS011;11650;48.106;-1.696;2023-04-21T12:48:16;15.63;;;13.07;;
22967;SDS011;11650;48.106;-1.696;2023-04-21T12:50:43;17.57;;;13.63;;
22967;SDS011;11650;48.106;-1.696;2023-04-21T12:53:10;16.53;;;13.03;;
22967;SDS011;11650;48.106;-1.696;2023-04-21T12:55:36;15.57;;;13.83;;
22967;SDS011;11650;48.106;-1.696;2023-04-21T12:58:02;16.63;;;13.47;;
22967;SDS011;11650;48.106;-1.696;2023-04-21T13:00:28;22.93;;;14.33;;
22967;SDS011;11650;48.106;-1.696;2023-04-21T13:02:53;16.93;;;13.97;;
22967;SDS011;11650;48.106;-1.696;2023-04-21T13:05:19;16.00;;;14.03;;
22967;SDS011;11650;48.106;-1.696;2023-04-21T13:07:45;14.90;;;13.07;;
22967;SDS011;11650;48.106;-1.696;2023-04-21T13:10:10;18.63;;;13.47;;
22967;SDS011;11650;48.106;-1.696;2023-04-21T13:12:36;15.17;;;12.97;;
22967;SDS011;11650;48.106;-1.696;2023-04-21T13:15:02;15.93;;;13.13;;
22967;SDS011;11650;48.106;-1.696;2023-04-21T13:17:28;15.73;;;12.17;;
22967;SDS011;11650;48.106;-1.696;2023-04-21T13:19:54;14.33;;;12.10;;
22967;SDS011;11650;48.106;-1.696;2023-04-21T13:22:20;15.17;;;11.70;;
22967;SDS011;11650;48.106;-1.696;2023-04-21T13:24:45;15.20;;;11.90;;
22967;SDS011;11650;48.106;-1.696;2023-04-21T13:27:11;15.27;;;12.80;;
22967;SDS011;11650;48.106;-1.696;2023-04-21T13:29:37;17.10;;;13.20;;
22967;SDS011;11650;48.106;-1.696;2023-04-21T13:32:03;15.73;;;11.97;;
22967;SDS011;11650;48.106;-1.696;2023-04-21T13:34:30;15.87;;;12.40;;
22967;SDS011;11650;48.106;-1.696;2023-04-21T13:36:57;13.70;;;11.83;;
22967;SDS011;11650;48.106;-1.696;2023-04-21T13:39:24;14.53;;;12.10;;
22967;SDS011;11650;48.106;-1.696;2023-04-21T13:41:50;14.87;;;12.73;;
22967;SDS011;11650;48.106;-1.696;2023-04-21T13:44:16;14.87;;;12.43;;
22967;SDS011;11650;48.106;-1.696;2023-04-21T13:46:42;15.27;;;12.90;;
22967;SDS011;11650;48.106;-1.696;2023-04-21T13:49:09;14.13;;;12.00;;
22967;SDS011;11650;48.106;-1.696;2023-04-21T13:51:35;16.87;;;11.97;;
22967;SDS011;11650;48.106;-1.696;2023-04-21T13:54:00;13.20;;;10.73;;
22967;SDS011;11650;48.106;-1.696;2023-04-21T13:56:26;13.17;;;11.40;;
22967;SDS011;11650;48.106;-1.696;2023-04-21T13:58:52;15.47;;;11.93;;
22967;SDS011;11650;48.106;-1.696;2023-04-21T14:01:19;13.00;;;11.60;;
22967;SDS011;11650;48.106;-1.696;2023-04-21T14:03:44;14.93;;;12.47;;
22967;SDS011;11650;48.106;-1.696;2023-04-21T14:06:10;15.10;;;12.43;;
22967;SDS011;11650;48.106;-1.696;2023-04-21T14:08:36;16.17;;;12.63;;
22967;SDS011;11650;48.106;-1.696;2023-04-21T14:11:03;13.87;;;12.00;;
22967;SDS011;11650;48.106;-1.696;2023-04-21T14:13:30;13.07;;;11.10;;
22967;SDS011;11650;48.106;-1.696;2023-04-21T14:15:56;11.97;;;10.67;;
22967;SDS011;11650;48.106;-1.696;2023-04-21T14:18:22;16.77;;;11.37;;
22967;SDS011;11650;48.106;-1.696;2023-04-21T14:20:48;14.37;;;11.80;;
22967;SDS011;11650;48.106;-1.696;2023-04-21T14:23:14;14.00;;;11.30;;
22967;SDS011;11650;48.106;-1.696;2023-04-21T14:25:40;14.87;;;12.77;;
22967;SDS011;11650;48.106;-1.696;2023-04-21T14:28:06;19.27;;;13.17;;